LLHA

Haifa International Airport

Haifa, Israel
TAF LLHA 221123Z 2212/2312 33008KT CAVOK TEMPO 2212/2214 VRB03KT BECMG 2218/2220 14007KT TX19/2212Z TN09/2304Z
Issued Valid From Valid To
Jan-22 @ 11:23 UTC
(5 hours ago)
Jan-22 @ 12:00 UTC
(5 hours ago)
Jan-23 @ 12:00 UTC
(in 19 hours)
Jan-22 @ 12:00 to Jan-22 @ 18:00
TAF LLHA 221123Z 2212/2312 33008KT CAVOK
Wind Visibility Clouds Conditions
330° at 8 knots 10,000+ meters
  • No significant clouds
Expired Click to View Jan-22 @ 12:00 to Jan-22 @ 14:00
TEMPO 2212/2214 VRB03KT
Wind
Variable at 3 knots
Becoming Jan-22 @ 18:00 to Jan-23 @ 12:00
BECMG 2218/2220 14007KT TX19/2212Z TN09/2304Z
Wind Visibility Clouds Conditions
140° at 7 knots 10,000+ meters
  • No significant clouds
TAF LLHA 221123Z 2212/2312 33008KT CAVOK TEMPO 2212/2214 VRB03KT BECMG 2218/2220 14007KT TX19/2212Z TN09/2304Z
Issued Jan-22 @ 11:23 UTC
(5 hours ago)
Valid From Jan-22 @ 12:00 UTC
(5 hours ago)
Valid To Jan-23 @ 12:00 UTC
(in 19 hours)
Jan-22 @ 12:00 - Jan-22 @ 18:00
Wind Visibility
330° at 8 knots 10,000+ meters
Clouds
  • No significant clouds
Conditions
Jan-22 @ 12:00 - Jan-22 @ 14:00
Wind
Variable at 3 knots
Becoming Jan-22 @ 18:00 - Jan-23 @ 12:00
Wind Visibility
140° at 7 knots 10,000+ meters
Clouds
  • No significant clouds
Conditions